JDC650 KDSM-KOWB
Flight info
| Callsign | JDC650 |
|---|---|
| Flight time | N/A |
| Altitude | 45000 |
| Route | DSM BAYLI PXV DIXEY |
| Aircraft | C750/M-SBDE3FGHRWXY/S |
Departure
| Time | 2026-05-06 04:31 |
|---|---|
| Airport | Des Moines International Airport (KDSM) |
Arrival
| Time | N/A |
|---|---|
| Airport | Owensboro Daviess County Airport (KOWB) |
| Time | Latitude | Longitude | Altitude | Speed | Heading |
|---|---|---|---|---|---|
| 2026-05-06 04:29 | 41.52925 | -93.65005 | 898 ft | 2 kts | 222° |
| 2026-05-06 04:29 | 41.52917 | -93.65045 | 898 ft | 0 kts | 312° |
| 2026-05-06 04:30 | 41.52918 | -93.65046 | 898 ft | 0 kts | 312° |
| 2026-05-06 04:30 | 41.52921 | -93.65050 | 898 ft | 1 kts | 312° |
| 2026-05-06 04:30 | 41.52922 | -93.65051 | 898 ft | 0 kts | 312° |
| 2026-05-06 04:30 | 41.52922 | -93.65052 | 898 ft | 0 kts | 312° |
| 2026-05-06 04:31 | 41.52950 | -93.65092 | 897 ft | 33 kts | 313° |
| 2026-05-06 04:31 | 41.53374 | -93.65713 | 912 ft | 135 kts | 312° |
| 2026-05-06 04:31 | 41.54104 | -93.66777 | 1148 ft | 171 kts | 313° |
| 2026-05-06 04:31 | 41.54907 | -93.68126 | 1592 ft | 201 kts | 299° |
| 2026-05-06 04:32 | 41.54988 | -93.70114 | 1893 ft | 250 kts | 253° |
| 2026-05-06 04:32 | 41.54028 | -93.72235 | 2280 ft | 289 kts | 234° |
| 2026-05-06 04:32 | 41.52379 | -93.73825 | 2145 ft | 291 kts | 203° |
| 2026-05-06 04:32 | 41.50426 | -93.74033 | 2107 ft | 283 kts | 167° |
| 2026-05-06 04:33 | 41.48831 | -93.72639 | 3199 ft | 271 kts | 126° |
| 2026-05-06 04:33 | 41.48044 | -93.70412 | 4339 ft | 265 kts | 105° |
| 2026-05-06 04:33 | 41.47465 | -93.68045 | 5367 ft | 271 kts | 107° |
| 2026-05-06 04:33 | 41.46681 | -93.65736 | 6394 ft | 276 kts | 117° |
| 2026-05-06 04:34 | 41.45536 | -93.63633 | 7358 ft | 284 kts | 131° |
| 2026-05-06 04:34 | 41.44147 | -93.61718 | 8381 ft | 291 kts | 136° |
| 2026-05-06 04:34 | 41.42743 | -93.59735 | 9409 ft | 298 kts | 134° |
| 2026-05-06 04:34 | 41.41382 | -93.57601 | 10251 ft | 308 kts | 133° |
| 2026-05-06 04:35 | 41.39941 | -93.55336 | 10547 ft | 334 kts | 134° |
| 2026-05-06 04:35 | 41.38342 | -93.52920 | 10685 ft | 361 kts | 134° |
| 2026-05-06 04:35 | 41.36646 | -93.50365 | 11260 ft | 370 kts | 134° |
| 2026-05-06 04:35 | 41.34971 | -93.47799 | 12038 ft | 374 kts | 134° |
| 2026-05-06 04:36 | 41.33251 | -93.45168 | 12746 ft | 379 kts | 134° |
| 2026-05-06 04:36 | 41.31500 | -93.42514 | 13474 ft | 384 kts | 135° |
| 2026-05-06 04:36 | 41.29725 | -93.39828 | 14118 ft | 389 kts | 135° |
| 2026-05-06 04:36 | 41.27931 | -93.37103 | 14731 ft | 394 kts | 136° |
| 2026-05-06 04:37 | 41.26113 | -93.34346 | 15336 ft | 399 kts | 136° |
| 2026-05-06 04:37 | 41.24269 | -93.31558 | 15960 ft | 404 kts | 137° |
| 2026-05-06 04:37 | 41.22402 | -93.28736 | 16596 ft | 409 kts | 137° |
| 2026-05-06 04:37 | 41.20511 | -93.25878 | 17252 ft | 414 kts | 137° |
| 2026-05-06 04:38 | 41.18596 | -93.22985 | 17920 ft | 420 kts | 138° |
| 2026-05-06 04:38 | 41.16657 | -93.20062 | 18545 ft | 425 kts | 138° |
| 2026-05-06 04:38 | 41.14692 | -93.17100 | 19222 ft | 428 kts | 138° |
| 2026-05-06 04:38 | 41.12719 | -93.14128 | 19902 ft | 431 kts | 138° |
| 2026-05-06 04:39 | 41.10729 | -93.11137 | 20601 ft | 434 kts | 139° |
| 2026-05-06 04:39 | 41.08749 | -93.08164 | 21273 ft | 437 kts | 139° |
| 2026-05-06 04:39 | 41.06697 | -93.05086 | 21896 ft | 442 kts | 139° |
| 2026-05-06 04:39 | 41.04655 | -93.02024 | 22576 ft | 445 kts | 139° |
| 2026-05-06 04:40 | 41.02624 | -92.98982 | 23215 ft | 449 kts | 139° |
| 2026-05-06 04:40 | 41.00544 | -92.95871 | 23805 ft | 452 kts | 139° |
| 2026-05-06 04:40 | 40.98445 | -92.92735 | 24347 ft | 456 kts | 140° |
| 2026-05-06 04:40 | 40.96335 | -92.89583 | 24883 ft | 459 kts | 140° |
| 2026-05-06 04:41 | 40.94208 | -92.86411 | 25416 ft | 462 kts | 140° |
| 2026-05-06 04:41 | 40.92061 | -92.83213 | 25965 ft | 465 kts | 140° |
| 2026-05-06 04:41 | 40.89902 | -92.80001 | 26490 ft | 469 kts | 140° |
| 2026-05-06 04:41 | 40.87729 | -92.76768 | 27016 ft | 472 kts | 140° |
| 2026-05-06 04:42 | 40.85536 | -92.73513 | 27491 ft | 476 kts | 141° |
| 2026-05-06 04:42 | 40.83350 | -92.70272 | 28022 ft | 479 kts | 141° |
| 2026-05-06 04:42 | 40.81098 | -92.66933 | 28537 ft | 483 kts | 141° |
| 2026-05-06 04:42 | 40.78883 | -92.63653 | 29086 ft | 485 kts | 141° |
| 2026-05-06 04:43 | 40.76625 | -92.60318 | 29580 ft | 489 kts | 141° |
| 2026-05-06 04:43 | 40.74349 | -92.56957 | 30069 ft | 493 kts | 141° |
| 2026-05-06 04:43 | 40.72055 | -92.53571 | 30408 ft | 498 kts | 142° |
| 2026-05-06 04:43 | 40.69732 | -92.50149 | 30727 ft | 504 kts | 142° |
| 2026-05-06 04:44 | 40.67385 | -92.46695 | 31127 ft | 507 kts | 142° |
| 2026-05-06 04:44 | 40.65027 | -92.43220 | 31594 ft | 509 kts | 143° |
| 2026-05-06 04:44 | 40.62650 | -92.39732 | 32017 ft | 512 kts | 143° |
| 2026-05-06 04:44 | 40.60262 | -92.36234 | 32454 ft | 515 kts | 143° |
| 2026-05-06 04:45 | 40.57860 | -92.32715 | 32892 ft | 518 kts | 144° |
| 2026-05-06 04:45 | 40.55445 | -92.29176 | 33347 ft | 521 kts | 144° |
| 2026-05-06 04:45 | 40.53045 | -92.25669 | 33744 ft | 524 kts | 144° |
| 2026-05-06 04:45 | 40.50597 | -92.22098 | 34169 ft | 527 kts | 145° |
| 2026-05-06 04:46 | 40.48144 | -92.18517 | 34673 ft | 527 kts | 145° |
| 2026-05-06 04:46 | 40.45695 | -92.14943 | 35211 ft | 526 kts | 145° |
| 2026-05-06 04:46 | 40.43246 | -92.11380 | 35673 ft | 526 kts | 145° |
| 2026-05-06 04:46 | 40.40788 | -92.07814 | 36197 ft | 525 kts | 145° |
| 2026-05-06 04:47 | 40.38346 | -92.04269 | 36736 ft | 524 kts | 145° |
| 2026-05-06 04:47 | 40.35896 | -92.00714 | 37291 ft | 524 kts | 146° |
| 2026-05-06 04:47 | 40.33453 | -91.97175 | 37843 ft | 523 kts | 146° |
| 2026-05-06 04:47 | 40.31006 | -91.93637 | 38420 ft | 522 kts | 146° |
| 2026-05-06 04:48 | 40.28566 | -91.90113 | 38922 ft | 522 kts | 145° |
| 2026-05-06 04:48 | 40.26124 | -91.86591 | 39352 ft | 523 kts | 145° |
| 2026-05-06 04:48 | 40.23682 | -91.83070 | 39796 ft | 522 kts | 144° |
| 2026-05-06 04:48 | 40.21236 | -91.79547 | 40258 ft | 522 kts | 144° |
| 2026-05-06 04:49 | 40.18795 | -91.76037 | 40749 ft | 521 kts | 143° |
| 2026-05-06 04:49 | 40.16389 | -91.72582 | 41250 ft | 520 kts | 143° |
| 2026-05-06 04:49 | 40.13956 | -91.69090 | 41752 ft | 519 kts | 142° |
| 2026-05-06 04:49 | 40.11520 | -91.65599 | 42238 ft | 518 kts | 142° |
| 2026-05-06 04:50 | 40.09092 | -91.62125 | 42724 ft | 517 kts | 141° |
| 2026-05-06 04:50 | 40.06667 | -91.58656 | 43221 ft | 516 kts | 141° |
| 2026-05-06 04:50 | 40.04243 | -91.55193 | 43711 ft | 515 kts | 140° |
| 2026-05-06 04:50 | 40.01827 | -91.51747 | 44141 ft | 514 kts | 140° |
| 2026-05-06 04:51 | 39.99410 | -91.48305 | 44498 ft | 515 kts | 140° |
| 2026-05-06 04:51 | 39.96980 | -91.44849 | 44810 ft | 517 kts | 140° |
| 2026-05-06 04:51 | 39.94537 | -91.41376 | 44914 ft | 522 kts | 140° |
| 2026-05-06 04:52 | 39.89578 | -91.34342 | 44928 ft | 538 kts | 139° |
| 2026-05-06 04:52 | 39.84442 | -91.27064 | 44929 ft | 553 kts | 139° |
| 2026-05-06 04:53 | 39.80074 | -91.20894 | 44928 ft | 562 kts | 139° |
| 2026-05-06 04:53 | 39.77409 | -91.17134 | 45072 ft | 566 kts | 139° |
| 2026-05-06 04:53 | 39.74724 | -91.13349 | 45099 ft | 570 kts | 139° |
| 2026-05-06 04:54 | 39.69530 | -91.05429 | 45080 ft | 585 kts | 130° |
| 2026-05-06 04:54 | 39.65106 | -90.96540 | 45095 ft | 592 kts | 127° |
| 2026-05-06 04:54 | 39.62844 | -90.92077 | 44949 ft | 593 kts | 129° |
| 2026-05-06 04:55 | 39.60501 | -90.87660 | 44947 ft | 594 kts | 129° |
| 2026-05-06 04:55 | 39.55920 | -90.78700 | 44943 ft | 597 kts | 127° |
| 2026-05-06 04:56 | 39.51354 | -90.69818 | 44936 ft | 588 kts | 129° |
| 2026-05-06 04:56 | 39.46793 | -90.61030 | 44938 ft | 588 kts | 128° |
| 2026-05-06 04:57 | 39.42259 | -90.52223 | 44935 ft | 588 kts | 128° |
| 2026-05-06 04:57 | 39.37703 | -90.43496 | 44937 ft | 588 kts | 128° |
| 2026-05-06 04:58 | 39.33151 | -90.34712 | 44945 ft | 588 kts | 129° |
| 2026-05-06 04:58 | 39.28551 | -90.25936 | 44940 ft | 590 kts | 129° |
| 2026-05-06 04:59 | 39.23959 | -90.17141 | 44944 ft | 592 kts | 129° |
| 2026-05-06 04:59 | 39.19331 | -90.08341 | 44944 ft | 592 kts | 129° |
| 2026-05-06 05:00 | 39.14711 | -89.99554 | 44964 ft | 592 kts | 129° |
| 2026-05-06 05:00 | 39.10074 | -89.90775 | 44951 ft | 593 kts | 130° |
| 2026-05-06 05:00 | 39.07790 | -89.86446 | 44716 ft | 575 kts | 130° |
| 2026-05-06 05:01 | 39.05583 | -89.82261 | 44400 ft | 556 kts | 130° |
| 2026-05-06 05:01 | 39.03433 | -89.78213 | 44066 ft | 540 kts | 131° |
| 2026-05-06 05:01 | 39.01338 | -89.74281 | 43739 ft | 527 kts | 131° |
| 2026-05-06 05:01 | 38.99309 | -89.70469 | 43426 ft | 519 kts | 132° |
| 2026-05-06 05:02 | 38.97275 | -89.66649 | 43122 ft | 519 kts | 132° |
| 2026-05-06 05:02 | 38.95219 | -89.62802 | 42844 ft | 526 kts | 133° |
| 2026-05-06 05:02 | 38.93122 | -89.58884 | 42588 ft | 540 kts | 133° |
| 2026-05-06 05:02 | 38.90968 | -89.54854 | 42351 ft | 555 kts | 133° |
| 2026-05-06 05:03 | 38.88765 | -89.50723 | 42059 ft | 566 kts | 133° |
| 2026-05-06 05:03 | 38.86533 | -89.46543 | 41824 ft | 571 kts | 133° |
| 2026-05-06 05:03 | 38.84284 | -89.42343 | 41572 ft | 571 kts | 133° |
| 2026-05-06 05:03 | 38.82024 | -89.38140 | 41314 ft | 571 kts | 134° |
| 2026-05-06 05:04 | 38.79767 | -89.33946 | 41061 ft | 572 kts | 134° |
| 2026-05-06 05:04 | 38.77502 | -89.29738 | 40810 ft | 573 kts | 134° |
| 2026-05-06 05:04 | 38.75233 | -89.25525 | 40561 ft | 573 kts | 134° |
| 2026-05-06 05:04 | 38.72963 | -89.21320 | 40295 ft | 574 kts | 134° |
| 2026-05-06 05:05 | 38.70685 | -89.17109 | 40056 ft | 576 kts | 134° |
| 2026-05-06 05:05 | 38.68403 | -89.12891 | 39819 ft | 577 kts | 135° |
| 2026-05-06 05:05 | 38.66116 | -89.08667 | 39587 ft | 578 kts | 135° |
| 2026-05-06 05:05 | 38.63822 | -89.04440 | 39327 ft | 579 kts | 135° |
| 2026-05-06 05:06 | 38.61523 | -89.00209 | 39096 ft | 580 kts | 135° |
| 2026-05-06 05:06 | 38.59220 | -88.95975 | 38874 ft | 580 kts | 135° |
| 2026-05-06 05:06 | 38.56911 | -88.91736 | 38640 ft | 582 kts | 135° |
| 2026-05-06 05:06 | 38.54597 | -88.87493 | 38369 ft | 582 kts | 135° |
| 2026-05-06 05:07 | 38.52312 | -88.83311 | 38078 ft | 582 kts | 135° |
| 2026-05-06 05:07 | 38.49994 | -88.79069 | 37793 ft | 581 kts | 135° |
| 2026-05-06 05:07 | 38.47681 | -88.74845 | 37533 ft | 580 kts | 135° |
| 2026-05-06 05:07 | 38.45369 | -88.70627 | 37278 ft | 580 kts | 135° |
| 2026-05-06 05:08 | 38.43056 | -88.66416 | 37012 ft | 579 kts | 135° |
| 2026-05-06 05:08 | 38.40744 | -88.62210 | 36752 ft | 579 kts | 135° |
| 2026-05-06 05:08 | 38.38432 | -88.58009 | 36502 ft | 579 kts | 135° |
| 2026-05-06 05:08 | 38.36121 | -88.53814 | 36255 ft | 578 kts | 134° |
| 2026-05-06 05:09 | 38.33809 | -88.49624 | 36010 ft | 578 kts | 134° |
| 2026-05-06 05:09 | 38.31492 | -88.45432 | 35752 ft | 577 kts | 134° |
| 2026-05-06 05:09 | 38.29214 | -88.41313 | 35515 ft | 576 kts | 134° |
| 2026-05-06 05:09 | 38.26906 | -88.37146 | 35273 ft | 576 kts | 134° |
| 2026-05-06 05:10 | 38.24588 | -88.32971 | 34659 ft | 580 kts | 134° |
| 2026-05-06 05:10 | 38.22264 | -88.28785 | 33956 ft | 576 kts | 133° |
| 2026-05-06 05:10 | 38.19963 | -88.24635 | 33166 ft | 573 kts | 133° |
| 2026-05-06 05:10 | 38.17669 | -88.20516 | 32336 ft | 572 kts | 133° |
| 2026-05-06 05:11 | 38.15360 | -88.16388 | 31590 ft | 574 kts | 133° |
| 2026-05-06 05:11 | 38.13050 | -88.12252 | 30862 ft | 573 kts | 132° |
| 2026-05-06 05:11 | 38.10746 | -88.08114 | 30149 ft | 572 kts | 132° |
| 2026-05-06 05:11 | 38.08444 | -88.03999 | 29366 ft | 571 kts | 132° |
| 2026-05-06 05:12 | 38.06141 | -87.99895 | 28557 ft | 570 kts | 132° |
| 2026-05-06 05:12 | 38.03842 | -87.95800 | 27779 ft | 569 kts | 131° |
| 2026-05-06 05:12 | 38.01547 | -87.91710 | 27032 ft | 569 kts | 131° |
| 2026-05-06 05:12 | 37.99255 | -87.87630 | 26298 ft | 568 kts | 131° |
| 2026-05-06 05:13 | 37.96962 | -87.83561 | 25574 ft | 567 kts | 131° |
| 2026-05-06 05:13 | 37.94688 | -87.79527 | 24882 ft | 551 kts | 131° |
| 2026-05-06 05:13 | 37.92315 | -87.75966 | 24089 ft | 507 kts | 144° |
| 2026-05-06 05:13 | 37.89678 | -87.73296 | 23378 ft | 470 kts | 153° |
| 2026-05-06 05:14 | 37.87090 | -87.70923 | 22573 ft | 449 kts | 153° |
| 2026-05-06 05:14 | 37.84588 | -87.68646 | 21791 ft | 438 kts | 153° |
| 2026-05-06 05:14 | 37.82195 | -87.66291 | 21020 ft | 437 kts | 147° |
| 2026-05-06 05:14 | 37.80241 | -87.63336 | 20225 ft | 447 kts | 130° |
| 2026-05-06 05:15 | 37.78530 | -87.60081 | 19529 ft | 442 kts | 130° |
| 2026-05-06 05:15 | 37.76877 | -87.56827 | 18846 ft | 438 kts | 128° |
| 2026-05-06 05:15 | 37.75291 | -87.53557 | 18163 ft | 433 kts | 127° |
| 2026-05-06 05:15 | 37.73718 | -87.50354 | 17382 ft | 427 kts | 128° |
| 2026-05-06 05:16 | 37.72128 | -87.47218 | 16620 ft | 421 kts | 129° |
| 2026-05-06 05:16 | 37.70555 | -87.44112 | 15872 ft | 416 kts | 128° |
| 2026-05-06 05:16 | 37.69024 | -87.41034 | 15142 ft | 411 kts | 128° |
| 2026-05-06 05:16 | 37.67508 | -87.37984 | 14397 ft | 410 kts | 128° |
| 2026-05-06 05:17 | 37.65982 | -87.34952 | 13702 ft | 407 kts | 128° |
| 2026-05-06 05:17 | 37.64475 | -87.31964 | 12920 ft | 402 kts | 128° |
| 2026-05-06 05:17 | 37.62991 | -87.29003 | 12158 ft | 395 kts | 128° |
| 2026-05-06 05:17 | 37.61530 | -87.26091 | 11418 ft | 390 kts | 128° |
| 2026-05-06 05:18 | 37.60089 | -87.23219 | 10679 ft | 385 kts | 127° |
| 2026-05-06 05:18 | 37.59156 | -87.20031 | 9883 ft | 395 kts | 102° |